RKJK/KUV METAR and TAF weather

Enter ICAO airport designator
Station Type Date Time Source
RKJK METAR 2019/10/21 02:56 UTC NOAA

RKJK 210256Z AUTO 04007KT 10SM CLR 22/11 A3006 RMK AO2 SLP184 T02160107 57017 $


Station Type Date Time Source
RKJK Decoded METAR 2019/10/21 02:56 UTC NOAA

Kunsan Ab, Korea, South (RKJK) 35-55N 126-37E 10M
Oct 20, 2019 - 10:56 PM EDT / 2019.10.21 0256 UTC
Wind: from the NE (040 degrees) at 8 MPH (7 KT):0
Visibility: 10 mile(s):0
Sky conditions: clear
Temperature: 70.9 F (21.6 C)
Dew Point: 51.3 F (10.7 C)
Relative Humidity: 49%
Pressure (altimeter): 30.06 in. Hg (1017 hPa)
Pressure tendency: 0.05 inches (1.7 hPa) lower than three hours ago
ob: RKJK 210256Z AUTO 04007KT 10SM CLR 22/11 A3006 RMK AO2 SLP184 T02160107 57017
cycle: 3

Station Type Date Time Source
RKJK TAF 2019/10/20 23:09 UTC NOAA

TAF TAF RKJK 202300Z 2023/2205 03009KT 9999 SKC QNH3009INS
BECMG 2116/2117 03006KT 4800 BR SCT250 QNH3007INS
BECMG 2122/2123 06006KT 9999 NSW SKC QNH3003INS TX23/2105Z TN10/2121Z

Example: see airport list